Time;durP1;ratioP1;P1;durP2;ratioP2;P2;SDS_P1;SDS_P2;PMS_P1;PMS_P2;Temp;Humidity;BMP_temperature;BMP_pressure;BME280_temperature;BME280_humidity;BME280_pressure;Samples;Min_cycle;Max_cycle;Signal;HPM_P1;HPM_P2
2021/10/12 00:01:30;;;;;;;19.92;8.10;;;11.60;99.90;;;;;;5080876;28;20079;-82
2021/10/12 00:03:57;;;;;;;21.45;8.90;;;11.70;99.90;;;;;;5080246;28;20072;-83
2021/10/12 00:06:24;;;;;;;20.60;8.93;;;11.70;99.90;;;;;;5080835;28;20076;-82
2021/10/12 00:08:51;;;;;;;16.52;8.57;;;11.60;99.90;;;;;;5080776;28;20044;-83
2021/10/12 00:11:18;;;;;;;14.77;7.40;;;11.70;99.90;;;;;;5080768;28;20139;-83
2021/10/12 00:13:45;;;;;;;13.57;7.22;;;11.70;99.90;;;;;;5080516;28;20359;-81
2021/10/12 00:16:12;;;;;;;15.57;7.60;;;11.70;99.90;;;;;;5080386;28;20558;-82
2021/10/12 00:18:40;;;;;;;18.75;7.20;;;11.60;99.90;;;;;;5080126;28;20481;-83
2021/10/12 00:21:08;;;;;;;16.42;8.15;;;11.60;99.90;;;;;;5080143;28;20143;-83
2021/10/12 00:23:35;;;;;;;9.45;5.55;;;11.60;99.90;;;;;;5083232;28;20082;-83
2021/10/12 00:26:02;;;;;;;11.63;6.65;;;11.60;99.90;;;;;;5084627;28;20053;-82
2021/10/12 00:28:30;;;;;;;14.70;6.70;;;11.70;99.90;;;;;;5081966;28;20117;-81
2021/10/12 00:30:57;;;;;;;15.18;5.82;;;11.70;99.90;;;;;;5081255;28;20123;-81
2021/10/12 00:33:24;;;;;;;15.65;5.70;;;11.80;99.90;;;;;;5080851;28;20080;-82
2021/10/12 00:35:53;;;;;;;14.80;7.05;;;11.80;99.90;;;;;;5080996;28;20455;-80
2021/10/12 00:38:20;;;;;;;15.68;7.07;;;11.90;99.90;;;;;;5081735;28;20135;-80
2021/10/12 00:40:46;;;;;;;15.20;7.50;;;11.90;99.90;;;;;;5081992;28;20315;-81
2021/10/12 00:43:13;;;;;;;19.15;9.07;;;11.90;99.90;;;;;;5082398;28;20135;-80
2021/10/12 00:45:41;;;;;;;22.20;8.10;;;11.90;99.90;;;;;;5081451;28;20135;-80
2021/10/12 00:48:10;;;;;;;16.92;8.60;;;11.80;99.90;;;;;;5088324;28;20053;-84
2021/10/12 00:50:40;;;;;;;13.68;7.63;;;11.80;99.90;;;;;;5091731;28;20068;-82
2021/10/12 00:53:08;;;;;;;14.98;8.02;;;11.90;99.90;;;;;;5091169;28;20079;-82
2021/10/12 00:55:35;;;;;;;19.55;8.57;;;11.80;99.90;;;;;;5092016;28;20032;-83
2021/10/12 00:58:02;;;;;;;21.83;10.20;;;11.80;99.90;;;;;;5097758;28;20068;-84
2021/10/12 01:00:29;;;;;;;19.20;9.60;;;11.80;99.90;;;;;;5096908;28;20045;-83
2021/10/12 01:02:56;;;;;;;21.38;9.18;;;11.80;99.90;;;;;;5088933;28;20072;-82
2021/10/12 01:05:23;;;;;;;24.48;9.30;;;11.70;99.90;;;;;;5087444;28;20076;-84
2021/10/12 01:07:50;;;;;;;20.55;10.27;;;11.70;99.90;;;;;;5084998;28;20131;-82
2021/10/12 01:10:18;;;;;;;15.88;8.95;;;11.80;99.90;;;;;;5084116;28;20135;-83
2021/10/12 01:12:45;;;;;;;20.10;9.38;;;11.80;99.90;;;;;;5083238;28;20088;-83
2021/10/12 01:15:12;;;;;;;18.55;8.65;;;11.70;99.90;;;;;;5082234;28;20063;-83
2021/10/12 01:17:39;;;;;;;19.30;8.77;;;11.80;99.90;;;;;;5084538;28;20057;-83
2021/10/12 01:20:09;;;;;;;17.98;8.63;;;11.80;99.90;;;;;;5086406;28;20076;-84
2021/10/12 01:22:39;;;;;;;18.98;9.77;;;11.80;99.90;;;;;;5084341;28;20087;-84
2021/10/12 01:25:07;;;;;;;18.23;9.23;;;11.80;99.90;;;;;;5085034;28;20109;-84
2021/10/12 01:27:34;;;;;;;21.42;9.82;;;11.70;99.90;;;;;;5088954;28;20083;-84
2021/10/12 01:30:01;;;;;;;16.60;9.85;;;11.70;99.90;;;;;;5098123;28;20035;-85
2021/10/12 01:32:28;;;;;;;22.42;9.70;;;11.70;99.90;;;;;;5098017;28;20032;-85
2021/10/12 01:35:00;;;;;;;20.52;10.10;;;11.70;99.90;;;;;;5098407;28;20057;-83
2021/10/12 01:37:29;;;;;;;21.98;10.50;;;11.70;99.90;;;;;;5098356;28;20033;-86
2021/10/12 01:39:57;;;;;;;22.63;10.30;;;11.60;99.90;;;;;;5098277;28;20055;-86
2021/10/12 01:42:24;;;;;;;21.83;11.27;;;11.60;99.90;;;;;;5095819;28;20584;-83
2021/10/12 01:44:52;;;;;;;20.88;12.02;;;11.50;99.90;;;;;;5090140;28;20044;-82
2021/10/12 01:47:19;;;;;;;20.15;11.38;;;11.50;99.90;;;;;;5089513;28;20070;-82
2021/10/12 01:49:47;;;;;;;22.42;12.23;;;11.50;99.90;;;;;;5090735;28;20108;-82
2021/10/12 01:52:14;;;;;;;21.75;12.38;;;11.50;99.90;;;;;;5089456;28;20076;-83
2021/10/12 01:54:41;;;;;;;24.90;13.55;;;11.50;99.90;;;;;;5089897;28;20083;-84
2021/10/12 01:57:10;;;;;;;24.58;13.00;;;11.50;99.90;;;;;;5095104;28;20079;-83
2021/10/12 01:59:37;;;;;;;20.10;12.48;;;11.50;99.90;;;;;;5094663;28;20055;-86
2021/10/12 02:02:04;;;;;;;25.67;13.60;;;11.50;99.90;;;;;;5095669;28;20059;-87
2021/10/12 02:04:32;;;;;;;25.45;13.70;;;11.50;99.90;;;;;;5091696;28;20066;-84
2021/10/12 02:06:59;;;;;;;22.95;13.43;;;11.50;99.90;;;;;;5095369;28;20060;-83
2021/10/12 02:09:27;;;;;;;27.20;14.13;;;11.50;99.90;;;;;;5096745;28;20049;-83
2021/10/12 02:11:54;;;;;;;20.08;12.93;;;11.50;99.90;;;;;;5096792;28;20087;-83
2021/10/12 02:14:22;;;;;;;20.70;13.18;;;11.50;99.90;;;;;;5096086;28;20060;-84
2021/10/12 02:16:49;;;;;;;22.90;12.15;;;11.50;99.90;;;;;;5097132;28;20075;-83
2021/10/12 02:19:16;;;;;;;24.38;12.30;;;11.50;99.90;;;;;;5095631;28;20036;-83
2021/10/12 02:21:44;;;;;;;24.48;13.73;;;11.50;99.90;;;;;;5096233;28;20095;-83
2021/10/12 02:24:11;;;;;;;22.15;13.20;;;11.50;99.90;;;;;;5097068;28;20032;-85
2021/10/12 02:26:38;;;;;;;23.25;13.45;;;11.40;99.90;;;;;;5097292;28;20037;-85
2021/10/12 02:29:05;;;;;;;23.88;13.80;;;11.40;99.90;;;;;;5097655;28;20032;-84
2021/10/12 02:31:33;;;;;;;24.88;13.68;;;11.40;99.90;;;;;;5096857;28;20044;-83
2021/10/12 02:34:00;;;;;;;23.67;14.98;;;11.40;99.90;;;;;;5096109;28;20037;-82
2021/10/12 02:36:27;;;;;;;26.55;14.63;;;11.40;99.90;;;;;;5096639;28;20072;-83
2021/10/12 02:38:54;;;;;;;23.65;15.43;;;11.40;99.90;;;;;;5096791;28;20060;-84
2021/10/12 02:41:21;;;;;;;26.10;14.43;;;11.40;99.90;;;;;;5096770;28;20049;-83
2021/10/12 02:43:48;;;;;;;21.55;13.85;;;11.40;99.90;;;;;;5095640;28;20041;-83
2021/10/12 02:46:14;;;;;;;27.02;15.60;;;11.40;99.90;;;;;;5094437;28;20075;-82
2021/10/12 02:48:43;;;;;;;25.35;14.02;;;11.40;99.90;;;;;;5092293;28;20498;-83
2021/10/12 02:51:10;;;;;;;26.05;14.80;;;11.30;99.90;;;;;;5093817;28;20064;-84
2021/10/12 02:53:37;;;;;;;29.67;15.20;;;11.30;99.90;;;;;;5093799;28;20048;-83
2021/10/12 02:56:05;;;;;;;25.08;14.65;;;11.30;99.90;;;;;;5091068;28;20082;-82
2021/10/12 02:58:31;;;;;;;24.65;14.75;;;11.30;99.90;;;;;;5092458;28;20052;-82
2021/10/12 03:00:58;;;;;;;24.45;15.18;;;11.30;99.90;;;;;;5091880;28;20055;-82
2021/10/12 03:03:25;;;;;;;23.45;15.23;;;11.20;99.90;;;;;;5087193;28;20055;-81
2021/10/12 03:05:53;;;;;;;26.80;15.93;;;11.30;99.90;;;;;;5082346;28;20055;-80
2021/10/12 03:08:20;;;;;;;25.10;15.23;;;11.20;99.90;;;;;;5085419;28;20075;-84
2021/10/12 03:10:47;;;;;;;26.33;16.80;;;11.30;99.90;;;;;;5088324;28;20083;-83
2021/10/12 03:13:14;;;;;;;27.67;18.35;;;11.30;99.90;;;;;;5085640;28;20084;-84
2021/10/12 03:15:43;;;;;;;30.38;18.98;;;11.30;99.90;;;;;;5085529;28;20044;-84
2021/10/12 03:18:10;;;;;;;33.72;20.33;;;11.30;99.90;;;;;;5089124;28;20052;-83
2021/10/12 03:20:37;;;;;;;36.28;23.35;;;11.30;99.90;;;;;;5087987;28;20059;-84
2021/10/12 03:23:05;;;;;;;38.97;24.45;;;11.20;99.90;;;;;;5086111;28;20056;-83
2021/10/12 03:25:32;;;;;;;39.05;26.20;;;11.20;99.90;;;;;;5087797;28;20093;-83
2021/10/12 03:27:59;;;;;;;41.78;25.65;;;11.20;99.90;;;;;;5085389;28;20088;-84
2021/10/12 03:30:26;;;;;;;38.13;25.90;;;11.20;99.90;;;;;;5088480;28;20055;-83
2021/10/12 03:32:55;;;;;;;37.33;27.17;;;11.20;99.90;;;;;;5082304;28;20075;-85
2021/10/12 03:35:29;;;;;;;42.00;27.65;;;11.20;99.90;;;;;;5083234;28;20080;-84
2021/10/12 03:37:57;;;;;;;40.80;25.55;;;11.30;99.90;;;;;;5083238;28;20059;-84
2021/10/12 03:40:26;;;;;;;37.45;26.02;;;11.30;99.90;;;;;;5087485;28;20045;-85
2021/10/12 03:42:53;;;;;;;38.05;24.42;;;11.30;99.90;;;;;;5087708;28;20059;-85
2021/10/12 03:45:20;;;;;;;34.85;23.42;;;11.30;99.90;;;;;;5088383;28;20089;-85
2021/10/12 03:47:49;;;;;;;41.20;23.55;;;11.30;99.90;;;;;;5090666;28;20512;-86
2021/10/12 03:50:16;;;;;;;32.75;22.35;;;11.40;99.90;;;;;;5087345;28;20076;-85
2021/10/12 03:52:43;;;;;;;33.53;21.77;;;11.40;99.90;;;;;;5085771;28;20087;-84
2021/10/12 03:55:10;;;;;;;30.77;21.75;;;11.30;99.90;;;;;;5082397;28;20045;-85
2021/10/12 03:57:39;;;;;;;30.02;22.10;;;11.30;99.90;;;;;;5087096;28;20072;-85
2021/10/12 04:00:10;;;;;;;34.28;22.08;;;11.20;99.90;;;;;;5087707;28;20091;-84
2021/10/12 04:02:39;;;;;;;32.33;20.75;;;11.30;99.90;;;;;;5084471;28;20136;-84
2021/10/12 04:05:07;;;;;;;36.40;20.63;;;11.30;99.90;;;;;;5083589;28;20131;-85
2021/10/12 04:07:34;;;;;;;29.40;19.85;;;11.30;99.90;;;;;;5083302;28;20084;-83
2021/10/12 04:10:03;;;;;;;32.45;18.95;;;11.30;99.90;;;;;;5082694;28;20052;-84
2021/10/12 04:12:30;;;;;;;30.02;16.58;;;11.20;99.90;;;;;;5081096;28;20167;-84
2021/10/12 04:14:59;;;;;;;29.63;17.02;;;11.20;99.90;;;;;;5081403;28;20118;-82
2021/10/12 04:17:28;;;;;;;31.10;17.05;;;11.20;99.90;;;;;;5081400;28;20548;-82
2021/10/12 04:19:55;;;;;;;35.22;21.27;;;11.10;99.90;;;;;;5084898;28;20108;-84
2021/10/12 04:22:22;;;;;;;39.78;22.60;;;11.10;99.90;;;;;;5083152;28;20075;-83
2021/10/12 04:24:49;;;;;;;33.88;19.13;;;11.10;99.90;;;;;;5082999;28;20131;-83
2021/10/12 04:27:17;;;;;;;29.38;16.13;;;11.00;99.90;;;;;;5083667;28;20053;-83
2021/10/12 04:29:44;;;;;;;26.63;16.25;;;11.10;99.90;;;;;;5083152;28;20052;-82
2021/10/12 04:32:12;;;;;;;28.80;16.00;;;11.00;99.90;;;;;;5087630;28;20068;-84
2021/10/12 04:34:39;;;;;;;26.73;15.00;;;11.00;99.90;;;;;;5085750;28;20127;-81
2021/10/12 04:37:06;;;;;;;25.45;15.52;;;11.00;99.90;;;;;;5083712;28;20072;-83
2021/10/12 04:39:33;;;;;;;36.22;19.67;;;11.00;99.90;;;;;;5083893;28;20075;-84
2021/10/12 04:42:01;;;;;;;35.92;19.08;;;11.00;99.90;;;;;;5084859;28;20057;-84
2021/10/12 04:44:29;;;;;;;29.08;17.98;;;11.00;99.90;;;;;;5084229;28;20056;-84
2021/10/12 04:46:56;;;;;;;34.05;19.15;;;10.90;99.90;;;;;;5084902;28;20060;-83
2021/10/12 04:49:25;;;;;;;31.05;15.55;;;10.90;99.90;;;;;;5081415;28;20131;-85
2021/10/12 04:51:52;;;;;;;26.38;16.20;;;10.90;99.90;;;;;;5081548;28;20108;-85
2021/10/12 04:58:01;;;;;;;25.73;13.88;;;11.00;99.90;;;;;;5083906;28;20048;-86
2021/10/12 05:03:53;;;;;;;22.35;13.13;;;11.00;99.90;;;;;;5084957;28;20108;-83
2021/10/12 05:06:21;;;;;;;32.85;15.32;;;11.00;99.90;;;;;;5079736;28;20055;-81
2021/10/12 05:08:48;;;;;;;23.35;13.38;;;11.00;99.90;;;;;;5080047;28;20052;-82
2021/10/12 05:11:15;;;;;;;24.67;13.20;;;11.10;99.90;;;;;;5081024;28;20052;-84
2021/10/12 05:13:42;;;;;;;29.65;13.75;;;11.00;99.90;;;;;;5082557;28;20071;-84
2021/10/12 05:16:12;;;;;;;27.63;13.25;;;11.00;99.90;;;;;;5081970;28;20052;-84
2021/10/12 05:21:07;;;;;;;25.73;12.75;;;11.00;99.90;;;;;;5071801;28;20494;-78
2021/10/12 05:23:35;;;;;;;23.05;12.00;;;11.00;99.90;;;;;;5072959;28;20054;-77
2021/10/12 05:26:02;;;;;;;24.58;12.60;;;11.00;99.90;;;;;;5072685;28;20044;-78
2021/10/12 05:28:29;;;;;;;24.48;12.40;;;11.00;99.90;;;;;;5072977;28;20249;-76
2021/10/12 05:30:56;;;;;;;24.08;12.43;;;11.10;99.90;;;;;;5075020;28;20420;-79
2021/10/12 05:33:23;;;;;;;22.75;12.50;;;11.10;99.90;;;;;;5075275;28;20105;-78
2021/10/12 05:35:50;;;;;;;30.98;13.50;;;11.10;99.90;;;;;;5076080;28;20100;-79
2021/10/12 05:38:19;;;;;;;24.85;12.02;;;11.10;99.90;;;;;;5076472;28;20117;-80
2021/10/12 05:40:48;;;;;;;24.63;12.50;;;11.10;99.90;;;;;;5078816;28;20480;-81
2021/10/12 05:43:15;;;;;;;28.85;12.70;;;11.10;99.90;;;;;;5078381;28;20052;-80
2021/10/12 05:45:42;;;;;;;27.17;12.60;;;11.10;99.90;;;;;;5078804;28;20087;-80
2021/10/12 05:48:10;;;;;;;25.50;12.60;;;11.10;99.90;;;;;;5077473;28;20052;-80
2021/10/12 05:50:40;;;;;;;26.95;13.50;;;11.20;99.90;;;;;;5074611;28;20048;-78
2021/10/12 05:53:17;;;;;;;28.45;13.02;;;11.20;99.90;;;;;;5072365;28;20045;-80
2021/10/12 05:55:51;;;;;;;22.48;14.27;;;11.20;99.90;;;;;;5074214;28;20044;-77
2021/10/12 05:58:29;;;;;;;30.27;16.20;;;11.20;99.90;;;;;;5073388;28;20048;-77
2021/10/12 06:00:56;;;;;;;30.48;14.98;;;11.20;99.90;;;;;;5078396;28;20049;-79
2021/10/12 06:03:23;;;;;;;30.58;15.27;;;11.20;99.90;;;;;;5074006;28;20098;-77
2021/10/12 06:05:50;;;;;;;32.10;16.13;;;11.20;99.90;;;;;;5073967;28;20131;-77
2021/10/12 06:08:17;;;;;;;30.17;17.88;;;11.20;99.90;;;;;;5074191;28;20080;-77
2021/10/12 06:10:44;;;;;;;32.65;17.83;;;11.20;99.90;;;;;;5075045;28;20071;-82
2021/10/12 06:13:11;;;;;;;30.83;18.00;;;11.20;99.90;;;;;;5074423;28;20486;-77
2021/10/12 06:15:41;;;;;;;28.60;16.70;;;11.20;99.90;;;;;;5073848;28;20049;-77
2021/10/12 06:18:08;;;;;;;30.17;15.88;;;11.20;99.90;;;;;;5073278;28;20044;-77
2021/10/12 06:20:35;;;;;;;33.03;15.55;;;11.20;99.90;;;;;;5072767;28;20556;-77
2021/10/12 06:23:03;;;;;;;28.52;14.82;;;11.20;99.90;;;;;;5073000;28;20048;-77
2021/10/12 06:25:30;;;;;;;41.03;15.65;;;11.10;99.90;;;;;;5071825;28;20565;-77
2021/10/12 06:27:57;;;;;;;27.45;12.05;;;11.10;99.90;;;;;;5072073;28;20135;-79
2021/10/12 06:30:24;;;;;;;24.63;12.93;;;11.10;99.90;;;;;;5073439;28;20131;-77
2021/10/12 06:32:52;;;;;;;26.50;13.10;;;11.20;99.90;;;;;;5072619;28;20436;-76
2021/10/12 06:35:19;;;;;;;25.98;13.02;;;11.20;99.90;;;;;;5073123;28;20048;-77
2021/10/12 06:37:46;;;;;;;33.95;15.93;;;11.20;99.90;;;;;;5073424;28;20578;-77
2021/10/12 06:40:14;;;;;;;23.65;10.75;;;11.20;99.90;;;;;;5077485;28;20063;-75
2021/10/12 06:42:41;;;;;;;26.02;11.73;;;11.20;99.90;;;;;;5084623;28;20119;-76
2021/10/12 06:45:11;;;;;;;23.40;11.15;;;11.20;99.90;;;;;;5085326;28;20526;-76
2021/10/12 06:47:38;;;;;;;23.60;10.88;;;11.20;99.90;;;;;;5082601;28;20074;-76
2021/10/12 06:50:07;;;;;;;23.73;11.50;;;11.20;99.90;;;;;;5082473;28;20518;-78
2021/10/12 06:52:34;;;;;;;22.13;10.32;;;11.20;99.90;;;;;;5080503;28;20059;-75
2021/10/12 06:55:01;;;;;;;18.52;10.75;;;11.20;99.90;;;;;;5074179;28;20080;-76
2021/10/12 06:57:28;;;;;;;20.63;10.27;;;11.20;99.90;;;;;;5071819;28;20052;-76
2021/10/12 06:59:54;;;;;;;21.70;10.15;;;11.20;99.90;;;;;;5070785;28;20044;-76
2021/10/12 07:02:21;;;;;;;23.60;10.70;;;11.10;99.90;;;;;;5071261;28;20139;-76
2021/10/12 07:04:48;;;;;;;23.55;10.55;;;11.10;99.90;;;;;;5071005;28;20147;-77
2021/10/12 07:07:16;;;;;;;25.33;10.90;;;11.10;99.90;;;;;;5070971;28;20058;-79
2021/10/12 07:09:43;;;;;;;16.58;10.35;;;11.10;99.90;;;;;;5071360;28;20488;-78
2021/10/12 07:12:10;;;;;;;27.67;11.05;;;11.20;99.90;;;;;;5070829;28;20080;-77
2021/10/12 07:14:37;;;;;;;22.98;12.07;;;11.20;99.90;;;;;;5071585;28;20066;-76
2021/10/12 07:17:04;;;;;;;21.05;11.88;;;11.20;99.90;;;;;;5071979;28;20044;-75
2021/10/12 07:19:31;;;;;;;24.30;11.80;;;11.20;99.90;;;;;;5071625;28;20159;-77
2021/10/12 07:21:58;;;;;;;22.95;11.27;;;11.20;99.90;;;;;;5071222;28;20123;-76
2021/10/12 07:24:27;;;;;;;25.02;10.85;;;11.20;99.90;;;;;;5071565;28;20464;-77
2021/10/12 07:26:54;;;;;;;25.85;9.80;;;11.10;99.90;;;;;;5071573;28;20059;-77
2021/10/12 07:29:21;;;;;;;21.17;9.63;;;11.10;99.90;;;;;;5071616;28;20056;-78
2021/10/12 07:31:49;;;;;;;20.25;9.07;;;11.10;99.90;;;;;;5074888;28;20131;-77
2021/10/12 07:34:15;;;;;;;18.23;9.02;;;11.10;99.90;;;;;;5075737;28;20140;-78
2021/10/12 07:36:43;;;;;;;18.10;9.30;;;11.10;99.90;;;;;;5076004;28;20051;-78
2021/10/12 07:39:10;;;;;;;16.88;9.40;;;11.10;99.90;;;;;;5075826;28;20140;-79
2021/10/12 07:41:38;;;;;;;16.08;8.18;;;11.10;99.90;;;;;;5075764;28;20041;-77
2021/10/12 07:44:06;;;;;;;21.45;8.77;;;11.10;99.90;;;;;;5063969;28;20080;-79
2021/10/12 07:46:33;;;;;;;21.17;8.38;;;11.20;99.90;;;;;;5072550;28;20044;-78
2021/10/12 07:49:01;;;;;;;19.50;8.07;;;11.20;99.90;;;;;;5075212;28;20071;-79
2021/10/12 07:51:29;;;;;;;14.88;8.05;;;11.30;99.90;;;;;;5064618;28;20118;-80
2021/10/12 07:53:59;;;;;;;19.40;8.15;;;11.30;99.90;;;;;;5064877;28;20132;-78
2021/10/12 07:56:36;;;;;;;21.45;9.93;;;11.30;99.90;;;;;;5075059;28;20040;-78
2021/10/12 07:59:06;;;;;;;22.17;9.43;;;11.30;99.90;;;;;;5075079;28;20426;-77
2021/10/12 08:01:34;;;;;;;25.15;11.50;;;11.40;99.90;;;;;;5059518;28;20135;-77
2021/10/12 08:04:01;;;;;;;18.42;12.00;;;11.50;99.90;;;;;;5067103;28;20155;-77
2021/10/12 08:06:28;;;;;;;20.90;11.52;;;11.40;99.90;;;;;;5074548;28;20425;-76
2021/10/12 08:08:56;;;;;;;19.02;10.88;;;11.50;99.90;;;;;;5074455;28;20106;-76
2021/10/12 08:11:25;;;;;;;23.30;11.43;;;11.50;99.90;;;;;;5069764;28;20139;-77
2021/10/12 08:13:55;;;;;;;17.25;10.80;;;11.50;99.90;;;;;;5073976;28;20517;-75
2021/10/12 08:16:29;;;;;;;24.20;10.82;;;11.60;99.90;;;;;;5071553;28;20109;-76
2021/10/12 08:18:57;;;;;;;22.13;12.25;;;11.70;99.90;;;;;;5073830;28;20056;-76
2021/10/12 08:21:25;;;;;;;22.60;11.07;;;11.70;99.90;;;;;;5074064;28;20131;-76
2021/10/12 08:23:53;;;;;;;23.15;11.80;;;11.60;99.90;;;;;;5074772;28;20094;-76
2021/10/12 08:26:20;;;;;;;26.88;12.73;;;11.60;99.90;;;;;;5074570;28;20040;-75
2021/10/12 08:28:48;;;;;;;21.90;12.75;;;11.50;99.90;;;;;;5074062;28;20593;-77
2021/10/12 08:31:15;;;;;;;25.13;15.02;;;11.50;99.90;;;;;;5074108;28;20421;-76
2021/10/12 08:33:44;;;;;;;27.10;15.95;;;11.50;99.90;;;;;;5074151;28;20124;-76
2021/10/12 08:36:11;;;;;;;25.58;16.95;;;11.50;99.90;;;;;;5073995;28;20068;-75
2021/10/12 08:38:38;;;;;;;35.33;17.67;;;11.50;99.90;;;;;;5074333;28;20079;-76
2021/10/12 08:41:06;;;;;;;42.63;20.45;;;11.50;99.90;;;;;;5073932;28;20064;-77
2021/10/12 08:43:34;;;;;;;33.72;20.45;;;11.50;99.90;;;;;;5073366;28;20109;-75
2021/10/12 08:46:02;;;;;;;32.42;20.20;;;11.50;99.90;;;;;;5074961;28;20087;-76
2021/10/12 08:48:31;;;;;;;38.83;23.15;;;11.50;99.90;;;;;;5073963;28;20078;-75
2021/10/12 08:51:01;;;;;;;28.95;19.67;;;11.50;99.90;;;;;;5074062;28;20382;-75
2021/10/12 08:53:29;;;;;;;28.65;16.08;;;11.50;99.90;;;;;;5074885;28;20153;-75
2021/10/12 08:55:57;;;;;;;28.73;15.93;;;11.50;99.90;;;;;;5074747;28;20048;-76
2021/10/12 08:58:25;;;;;;;27.52;17.25;;;11.50;99.90;;;;;;5073435;28;20162;-74
2021/10/12 09:01:04;;;;;;;26.38;18.25;;;11.50;99.90;;;;;;5072706;28;20056;-76
2021/10/12 09:03:44;;;;;;;32.17;19.42;;;11.50;99.90;;;;;;5073020;28;20136;-76
2021/10/12 09:06:13;;;;;;;27.73;18.63;;;11.50;99.90;;;;;;5072825;28;20501;-76
2021/10/12 09:08:41;;;;;;;23.92;18.02;;;11.50;99.90;;;;;;5073245;28;20059;-78
2021/10/12 09:11:22;;;;;;;36.03;19.15;;;11.50;99.90;;;;;;5073310;28;20045;-78
2021/10/12 09:13:51;;;;;;;27.67;19.67;;;11.50;99.90;;;;;;5071302;28;20068;-78
2021/10/12 09:16:18;;;;;;;31.08;22.48;;;11.70;99.90;;;;;;5062368;28;20059;-77
2021/10/12 09:18:50;;;;;;;34.75;23.20;;;11.70;99.90;;;;;;5073172;28;20084;-76
2021/10/12 09:21:20;;;;;;;32.03;22.83;;;11.80;99.90;;;;;;5072769;28;20052;-76
2021/10/12 09:23:48;;;;;;;23.67;15.85;;;11.80;99.90;;;;;;5072554;28;20143;-76
2021/10/12 09:26:21;;;;;;;21.50;15.25;;;11.80;99.90;;;;;;5073138;28;20452;-76
2021/10/12 09:28:47;;;;;;;22.27;15.35;;;11.80;99.90;;;;;;5073056;28;20174;-77
2021/10/12 09:31:15;;;;;;;22.73;16.92;;;11.70;99.90;;;;;;5073021;28;20098;-75
2021/10/12 09:33:47;;;;;;;30.63;20.95;;;11.70;99.90;;;;;;5073049;28;20588;-77
2021/10/12 09:36:30;;;;;;;;;;;11.70;99.90;;;;;;5073551;28;20417;-77
2021/10/12 09:38:58;;;;;;;27.25;20.13;;;11.70;99.90;;;;;;5073133;28;19920;-77
2021/10/12 09:41:26;;;;;;;27.55;19.85;;;11.70;99.90;;;;;;5072514;28;20189;-75
2021/10/12 09:43:53;;;;;;;21.85;17.90;;;11.70;99.90;;;;;;5072460;28;20087;-75
2021/10/12 09:46:28;;;;;;;29.25;17.48;;;11.70;99.90;;;;;;5072495;28;20481;-75
2021/10/12 09:49:09;;;;;;;23.20;16.27;;;11.70;99.90;;;;;;5072149;28;20131;-75
2021/10/12 09:51:37;;;;;;;25.42;16.42;;;11.70;99.90;;;;;;5072542;28;20044;-75
2021/10/12 09:54:04;;;;;;;23.63;15.82;;;11.70;99.90;;;;;;5072539;28;20141;-77
2021/10/12 09:56:31;;;;;;;25.10;15.77;;;11.70;99.90;;;;;;5072736;28;20054;-76
2021/10/12 09:58:58;;;;;;;18.58;14.93;;;11.80;99.90;;;;;;5072698;28;20076;-75
2021/10/12 10:01:25;;;;;;;23.05;16.30;;;11.90;99.90;;;;;;5072184;28;20051;-76
2021/10/12 10:03:53;;;;;;;33.58;19.88;;;11.90;99.90;;;;;;5071816;28;20051;-75
2021/10/12 10:06:22;;;;;;;27.73;19.90;;;11.90;99.90;;;;;;5072101;28;20056;-75
2021/10/12 10:08:53;;;;;;;23.48;18.20;;;12.00;99.90;;;;;;5072174;28;20048;-75
2021/10/12 10:11:23;;;;;;;28.17;19.92;;;12.00;99.90;;;;;;5072062;28;20048;-75
2021/10/12 10:13:50;;;;;;;30.02;22.15;;;12.00;99.90;;;;;;5071505;28;20048;-76
2021/10/12 10:16:17;;;;;;;32.75;23.50;;;12.00;99.90;;;;;;5070908;28;20052;-75
2021/10/12 10:18:46;;;;;;;30.40;20.73;;;12.10;99.90;;;;;;5069995;28;20486;-76
2021/10/12 10:21:13;;;;;;;28.73;19.45;;;12.10;99.90;;;;;;5072144;28;20055;-76
2021/10/12 10:23:56;;;;;;;33.63;20.55;;;12.20;99.90;;;;;;5070626;28;20119;-76
2021/10/12 10:26:28;;;;;;;29.35;19.95;;;12.30;99.90;;;;;;5069695;28;20049;-76
2021/10/12 10:29:16;;;;;;;23.95;16.35;;;12.40;99.90;;;;;;5068680;28;20530;-76
2021/10/12 10:31:47;;;;;;;23.25;17.02;;;12.50;99.90;;;;;;5071926;28;20362;-76
2021/10/12 10:34:31;;;;;;;24.42;16.05;;;12.60;99.90;;;;;;5071644;28;20120;-79
2021/10/12 10:37:25;;;;;;;20.77;15.95;;;12.70;99.90;;;;;;5071989;28;20044;-76
2021/10/12 10:39:55;;;;;;;19.10;15.75;;;12.80;99.90;;;;;;5071899;28;20083;-76
2021/10/12 10:42:56;;;;;;;26.17;15.75;;;12.90;99.90;;;;;;5071277;28;20098;-76
2021/10/12 10:45:51;;;;;;;19.08;15.40;;;13.10;99.90;;;;;;5049819;28;20052;-77
2021/10/12 10:48:20;;;;;;;21.10;16.48;;;13.10;99.90;;;;;;5072465;28;20055;-75
2021/10/12 10:50:48;;;;;;;20.98;14.65;;;13.30;99.90;;;;;;5073582;28;20086;-77
2021/10/12 10:53:34;;;;;;;18.42;15.10;;;13.30;99.90;;;;;;5071413;28;20048;-78
2021/10/12 10:56:03;;;;;;;20.13;16.08;;;13.30;99.90;;;;;;5071696;28;20131;-79
2021/10/12 10:58:30;;;;;;;21.98;15.55;;;13.40;99.90;;;;;;5071748;28;20416;-77
2021/10/12 11:00:57;;;;;;;19.55;14.30;;;13.50;99.90;;;;;;5071288;28;20497;-76
2021/10/12 11:03:42;;;;;;;20.48;14.95;;;13.50;99.90;;;;;;5071129;28;20053;-78
2021/10/12 11:06:19;;;;;;;19.15;15.30;;;13.50;99.90;;;;;;5071136;28;20135;-77
2021/10/12 11:09:01;;;;;;;18.17;15.43;;;13.50;99.90;;;;;;5071204;28;20504;-77
2021/10/12 11:11:34;;;;;;;23.60;15.25;;;13.50;99.90;;;;;;5071410;28;20433;-78
2021/10/12 11:14:03;;;;;;;20.00;15.98;;;13.50;99.90;;;;;;5071254;28;20056;-77
2021/10/12 11:16:36;;;;;;;21.42;16.33;;;13.50;99.90;;;;;;5071328;28;20517;-77
2021/10/12 11:21:31;;;;;;;21.73;16.80;;;13.30;99.90;;;;;;5121277;22;20056;-76
2021/10/12 11:23:58;;;;;;;26.48;18.13;;;13.30;99.90;;;;;;5093172;28;20135;-77
2021/10/12 11:26:28;;;;;;;25.38;16.85;;;13.40;99.90;;;;;;5092746;28;20044;-77
2021/10/12 11:28:58;;;;;;;26.95;18.15;;;13.40;99.90;;;;;;5092726;28;20486;-77
2021/10/12 11:31:28;;;;;;;22.60;17.10;;;13.50;99.90;;;;;;5084148;28;20054;-78
2021/10/12 11:33:56;;;;;;;22.38;17.80;;;13.40;99.90;;;;;;5083588;28;20123;-77
2021/10/12 11:36:25;;;;;;;25.58;18.27;;;13.40;99.90;;;;;;5081575;28;20134;-77
2021/10/12 11:38:53;;;;;;;29.23;19.85;;;13.40;99.90;;;;;;5081301;28;20047;-78
2021/10/12 11:41:26;;;;;;;26.10;17.80;;;13.40;99.90;;;;;;5080660;28;20056;-78
2021/10/12 11:43:57;;;;;;;23.55;17.67;;;13.40;99.90;;;;;;5081965;28;20050;-76
2021/10/12 11:46:31;;;;;;;27.58;19.23;;;13.40;99.90;;;;;;5081914;28;20049;-77
2021/10/12 11:49:13;;;;;;;22.95;17.55;;;13.40;99.90;;;;;;5075493;28;20429;-78
2021/10/12 11:51:41;;;;;;;24.33;17.08;;;13.40;99.90;;;;;;5071016;28;20052;-79
2021/10/12 11:54:08;;;;;;;27.65;16.20;;;13.40;99.90;;;;;;5073142;28;20417;-78
2021/10/12 11:56:36;;;;;;;24.95;16.40;;;13.50;99.90;;;;;;5093061;28;20480;-78
2021/10/12 11:59:06;;;;;;;22.73;16.77;;;13.50;99.90;;;;;;5093808;28;20071;-78
2021/10/12 12:01:35;;;;;;;20.63;14.85;;;13.50;99.90;;;;;;5094643;28;20429;-78
2021/10/12 12:04:05;;;;;;;15.48;13.88;;;13.50;99.90;;;;;;5093785;28;20051;-78
2021/10/12 12:06:34;;;;;;;19.60;15.55;;;13.50;99.90;;;;;;5089801;28;20043;-78
2021/10/12 12:09:04;;;;;;;19.30;16.35;;;13.50;99.90;;;;;;5093793;28;20076;-78
2021/10/12 12:11:32;;;;;;;19.23;16.75;;;13.50;99.90;;;;;;5093277;28;20097;-77
2021/10/12 12:14:00;;;;;;;20.77;15.75;;;13.50;99.90;;;;;;5092955;28;20131;-78
2021/10/12 12:16:33;;;;;;;15.27;12.68;;;13.60;99.90;;;;;;5096049;28;20051;-78
2021/10/12 12:19:00;;;;;;;16.27;10.82;;;13.70;99.90;;;;;;5100431;28;20362;-78
2021/10/12 12:21:30;;;;;;;12.95;11.43;;;13.70;99.90;;;;;;5096235;28;20536;-77
2021/10/12 12:23:59;;;;;;;15.65;12.10;;;13.60;99.90;;;;;;5096069;28;20130;-78
2021/10/12 12:26:27;;;;;;;13.07;11.63;;;13.70;99.90;;;;;;5097391;28;20466;-79
2021/10/12 12:29:13;;;;;;;13.40;11.88;;;13.70;99.90;;;;;;5097586;28;20048;-79
2021/10/12 12:31:47;;;;;;;12.40;11.05;;;13.70;99.90;;;;;;5097108;28;20086;-77
2021/10/12 12:34:28;;;;;;;12.90;10.98;;;13.70;99.90;;;;;;5097791;28;20044;-80
2021/10/12 12:36:56;;;;;;;13.75;11.00;;;13.70;99.90;;;;;;5100045;28;20068;-81
2021/10/12 12:39:33;;;;;;;13.40;10.63;;;13.70;99.90;;;;;;5102739;28;20105;-79
2021/10/12 12:42:06;;;;;;;15.20;11.73;;;13.80;99.90;;;;;;5102113;28;20067;-79
2021/10/12 12:44:33;;;;;;;13.57;11.07;;;13.90;99.90;;;;;;5097272;28;20067;-79
2021/10/12 12:47:03;;;;;;;14.85;11.38;;;14.00;99.90;;;;;;5102281;28;20062;-79
2021/10/12 12:49:31;;;;;;;15.70;11.18;;;14.10;99.90;;;;;;5094417;28;20554;-80